Nambouwalu, Fiji
Current Conditions -  °F | °C
As of 5:00 PM on Sunday 23 Nov 2014 (Local Time) from NFNA Reporting Station
Broken Clouds Broken Clouds  
Wind Chill: 81°   Ceiling: 2000
Heat Index: 84°   Visibility: 31mi
Dew Point: 70°   Wind: 8mph
Humidity: 70%   Direction: 120°ESE
Pressure: 29.85"   Gusts: NA
Location:  16.99°S, 178.69°E
Report Text: NFNA 230500Z 12007KT 50KM BKN020 27/21 Q1011 RMK RR NIL
Loading
Personal Weather Stations






























Interactive Weather Map New forecast layout! Learn more

10-Day Weather Forecast

Advertisements
Track Severe Weather on mobile